Weather at Oficina Victoria Airport

Public forecast

Using degrees Celsius for public forecast. Weather courtesy of forecast.io.

Closest aviation weather report (METAR) to Oficina Victoria Airport

Closest report is Diego Aracena Airport, 33.4 nm (61.9 km) WNW. Retrieved 2021/01/22 04:00 UTC (38 minutes ago):

SCDA 220400Z 21005KT CAVOK 19/15 Q1013

Closest aviation forecast (TAF) to Oficina Victoria Airport

Closest forecast is Diego Aracena Airport, 33.4 nm (61.9 km) WNW. Retrieved 2021-01-22 00:00 UTC (5 hours ago):

TAF SCDA 212206Z 2200/2224 22015KT CAVOK TN18/2210Z TX24/2218Z BECMG 2202/2204 18008KT BECMG 2215/2217 24019KT